EGQK - Kinloss
Distance from station: E 5mi, 14km
Updated: 01/21/2018 1:50pm

 Wind from SSW
Wind: SSW 12 mph , 19 km/h
Temperature: 39°F , 4°C
Wind Chill: 32°F , 0°C
Dew Point: 34°F , 1°C
Humidity: 81%
Barometer: 29.35 inHg , 994 hPa
Visibility: 6 miles , 10 km
2018/01/21 21:50 EGQK 212150Z AUTO 20010KT 9999 ///////// 04/01 Q0994 RERA